sensor_id;sensor_type;location;lat;lon;timestamp;pressure;altitude;pressure_sealevel;temperature;humidity
1776;BME280;885;42.626;23.200;2022-08-03T00:00:23;159508.38;;;16.37;100.00
1776;BME280;885;42.626;23.200;2022-08-03T00:02:53;159891.41;;;16.40;100.00
1776;BME280;885;42.626;23.200;2022-08-03T00:05:22;159917.53;;;16.50;100.00
1776;BME280;885;42.626;23.200;2022-08-03T00:07:58;160321.56;;;16.62;100.00
1776;BME280;885;42.626;23.200;2022-08-03T00:10:29;159891.41;;;16.40;100.00
1776;BME280;885;42.626;23.200;2022-08-03T00:12:59;159929.22;;;16.55;100.00
1776;BME280;885;42.626;23.200;2022-08-03T00:15:26;159884.91;;;16.38;100.00
1776;BME280;885;42.626;23.200;2022-08-03T00:17:53;159211.03;;;16.66;94.76
1776;BME280;885;42.626;23.200;2022-08-03T00:20:20;159935.75;;;16.57;100.00
1776;BME280;885;42.626;23.200;2022-08-03T00:22:47;159925.31;;;16.53;100.00
1776;BME280;885;42.626;23.200;2022-08-03T00:25:14;160346.38;;;16.72;100.00
1776;BME280;885;42.626;23.200;2022-08-03T00:27:42;159908.34;;;16.47;100.00
1776;BME280;885;42.626;23.200;2022-08-03T00:30:13;159905.75;;;16.46;100.00
1776;BME280;885;42.626;23.200;2022-08-03T00:32:42;159907.00;;;16.46;100.00
1776;BME280;885;42.626;23.200;2022-08-03T00:35:09;159513.56;;;16.39;100.00
1776;BME280;885;42.626;23.200;2022-08-03T00:37:36;159895.34;;;16.42;100.00
1776;BME280;885;42.626;23.200;2022-08-03T00:40:18;159504.50;;;16.35;100.00
1776;BME280;885;42.626;23.200;2022-08-03T00:42:48;159487.59;;;16.29;100.00
1776;BME280;885;42.626;23.200;2022-08-03T00:45:16;159486.28;;;16.28;100.00
1776;BME280;885;42.626;23.200;2022-08-03T00:47:43;159102.09;;;16.24;100.00
1776;BME280;885;42.626;23.200;2022-08-03T00:50:10;159095.59;;;16.22;100.00
1776;BME280;885;42.626;23.200;2022-08-03T00:52:38;159069.69;;;16.12;100.00
1776;BME280;885;42.626;23.200;2022-08-03T00:55:05;159490.16;;;16.30;100.00
1776;BME280;885;42.626;23.200;2022-08-03T00:57:32;159518.78;;;16.41;100.00
1776;BME280;885;42.626;23.200;2022-08-03T01:00:10;159474.59;;;16.24;100.00
1776;BME280;885;42.626;23.200;2022-08-03T01:02:39;159464.19;;;16.20;100.00
1776;BME280;885;42.626;23.200;2022-08-03T01:05:07;159825.00;;;16.15;100.00
1776;BME280;885;42.626;23.200;2022-08-03T01:07:49;159848.41;;;16.24;100.00
1776;BME280;885;42.626;23.200;2022-08-03T01:10:29;160217.06;;;16.22;100.00
1776;BME280;885;42.626;23.200;2022-08-03T01:13:03;159856.25;;;16.27;100.00
1776;BME280;885;42.626;23.200;2022-08-03T01:15:52;159843.22;;;16.22;100.00
1776;BME280;885;42.626;23.200;2022-08-03T01:18:29;159913.53;;;16.49;98.81
1776;BME280;885;42.626;23.200;2022-08-03T01:21:00;160271.91;;;16.43;100.00
1776;BME280;885;42.626;23.200;2022-08-03T01:23:50;160266.69;;;16.41;100.00
1776;BME280;885;42.626;23.200;2022-08-03T01:26:41;160265.34;;;16.40;100.00
1776;BME280;885;42.626;23.200;2022-08-03T01:29:36;160249.69;;;16.34;100.00
1776;BME280;885;42.626;23.200;2022-08-03T01:32:10;159924.00;;;16.53;97.29
1776;BME280;885;42.626;23.200;2022-08-03T01:34:44;160724.53;;;16.73;99.42
1776;BME280;885;42.626;23.200;2022-08-03T01:37:15;160366.00;;;16.79;98.62
1776;BME280;885;42.626;23.200;2022-08-03T01:39:46;159963.09;;;16.68;97.22
1776;BME280;885;42.626;23.200;2022-08-03T01:42:15;160426.06;;;17.02;94.27
1776;BME280;885;42.626;23.200;2022-08-03T01:44:46;159982.69;;;16.76;95.92
1776;BME280;885;42.626;23.200;2022-08-03T01:47:14;159957.91;;;16.66;97.52
1776;BME280;885;42.626;23.200;2022-08-03T01:49:43;160047.81;;;17.01;90.97
1776;BME280;885;42.626;23.200;2022-08-03T01:52:42;159961.78;;;16.67;96.87
1776;BME280;885;42.626;23.200;2022-08-03T01:55:12;159527.84;;;16.44;98.32
1776;BME280;885;42.626;23.200;2022-08-03T01:57:44;159484.97;;;16.28;99.29
1776;BME280;885;42.626;23.200;2022-08-03T02:00:16;159517.47;;;16.40;97.42
1776;BME280;885;42.626;23.200;2022-08-03T02:03:05;159490.16;;;16.30;100.00
1776;BME280;885;42.626;23.200;2022-08-03T02:05:35;159488.91;;;16.29;100.00
1776;BME280;885;42.626;23.200;2022-08-03T02:08:16;159494.09;;;16.31;100.00
1776;BME280;885;42.626;23.200;2022-08-03T02:10:44;159883.59;;;16.37;100.00
1776;BME280;885;42.626;23.200;2022-08-03T02:13:21;159505.75;;;16.36;97.65
1776;BME280;885;42.626;23.200;2022-08-03T02:16:04;159887.50;;;16.39;99.87
1776;BME280;885;42.626;23.200;2022-08-03T02:18:34;159495.38;;;16.32;100.00
1776;BME280;885;42.626;23.200;2022-08-03T02:21:11;159470.69;;;16.22;100.00
1776;BME280;885;42.626;23.200;2022-08-03T02:23:56;159461.63;;;16.19;100.00
1776;BME280;885;42.626;23.200;2022-08-03T02:26:28;159462.88;;;16.19;100.00
1776;BME280;885;42.626;23.200;2022-08-03T02:28:56;159396.66;;;15.94;100.00
1776;BME280;885;42.626;23.200;2022-08-03T02:31:32;159414.81;;;16.01;100.00
1776;BME280;885;42.626;23.200;2022-08-03T02:34:02;159407.06;;;15.98;100.00
1776;BME280;885;42.626;23.200;2022-08-03T02:36:42;159417.44;;;16.02;100.00
1776;BME280;885;42.626;23.200;2022-08-03T02:39:10;159034.72;;;15.98;100.00
1776;BME280;885;42.626;23.200;2022-08-03T02:44:30;159030.81;;;15.97;100.00
1776;BME280;885;42.626;23.200;2022-08-03T02:47:18;159443.41;;;16.12;100.00
1776;BME280;885;42.626;23.200;2022-08-03T02:49:47;159041.16;;;16.01;100.00
1776;BME280;885;42.626;23.200;2022-08-03T02:52:22;159043.78;;;16.02;100.00
1776;BME280;885;42.626;23.200;2022-08-03T02:54:54;159020.44;;;15.93;100.00
1776;BME280;885;42.626;23.200;2022-08-03T02:57:38;159026.94;;;15.95;100.00
1776;BME280;885;42.626;23.200;2022-08-03T03:00:39;159387.53;;;15.90;100.00
1776;BME280;885;42.626;23.200;2022-08-03T03:03:23;159417.44;;;16.02;100.00
1776;BME280;885;42.626;23.200;2022-08-03T03:05:51;159436.91;;;16.09;100.00
1776;BME280;885;42.626;23.200;2022-08-03T03:08:23;159439.53;;;16.10;100.00
1776;BME280;885;42.626;23.200;2022-08-03T03:10:56;159435.59;;;16.09;100.00
1776;BME280;885;42.626;23.200;2022-08-03T03:13:29;159440.84;;;16.11;100.00
1776;BME280;885;42.626;23.200;2022-08-03T03:16:10;159414.81;;;16.01;100.00
1776;BME280;885;42.626;23.200;2022-08-03T03:18:39;159407.06;;;15.98;100.00
1776;BME280;885;42.626;23.200;2022-08-03T03:21:08;159400.56;;;15.95;100.00
1776;BME280;885;42.626;23.200;2022-08-03T03:23:37;159392.72;;;15.92;100.00
1776;BME280;885;42.626;23.200;2022-08-03T03:26:05;159386.28;;;15.89;100.00
1776;BME280;885;42.626;23.200;2022-08-03T03:28:33;159772.88;;;15.95;100.00
1776;BME280;885;42.626;23.200;2022-08-03T03:31:02;159749.47;;;15.85;100.00
1776;BME280;885;42.626;23.200;2022-08-03T03:33:29;160116.56;;;15.83;100.00
1776;BME280;885;42.626;23.200;2022-08-03T03:35:58;160132.22;;;15.89;100.00
1776;BME280;885;42.626;23.200;2022-08-03T03:38:25;160128.31;;;15.87;100.00
1776;BME280;885;42.626;23.200;2022-08-03T03:40:53;160125.69;;;15.86;100.00
1776;BME280;885;42.626;23.200;2022-08-03T03:43:22;160120.47;;;15.84;100.00
1776;BME280;885;42.626;23.200;2022-08-03T03:45:49;160115.25;;;15.82;100.00
1776;BME280;885;42.626;23.200;2022-08-03T03:48:18;160107.41;;;15.79;100.00
1776;BME280;885;42.626;23.200;2022-08-03T03:50:45;160089.16;;;15.72;100.00
1776;BME280;885;42.626;23.200;2022-08-03T03:53:14;160499.34;;;15.86;100.00
1776;BME280;885;42.626;23.200;2022-08-03T03:55:41;160465.31;;;15.73;100.00
1776;BME280;885;42.626;23.200;2022-08-03T03:58:08;160482.31;;;15.80;100.00
1776;BME280;885;42.626;23.200;2022-08-03T04:00:35;160871.72;;;15.86;100.00
1776;BME280;885;42.626;23.200;2022-08-03T04:03:02;160486.25;;;15.81;100.00
1776;BME280;885;42.626;23.200;2022-08-03T04:05:29;160859.91;;;15.81;100.00
1776;BME280;885;42.626;23.200;2022-08-03T04:08:16;160874.38;;;15.87;100.00
1776;BME280;885;42.626;23.200;2022-08-03T04:11:07;161275.72;;;15.98;100.00
1776;BME280;885;42.626;23.200;2022-08-03T04:13:38;161288.81;;;16.03;100.00
1776;BME280;885;42.626;23.200;2022-08-03T04:16:09;161286.22;;;16.02;100.00
1776;BME280;885;42.626;23.200;2022-08-03T04:18:39;161292.81;;;16.04;100.00
1776;BME280;885;42.626;23.200;2022-08-03T04:21:09;161678.50;;;16.09;100.00
1776;BME280;885;42.626;23.200;2022-08-03T04:23:43;161696.97;;;16.16;100.00
1776;BME280;885;42.626;23.200;2022-08-03T04:26:12;162070.94;;;16.16;100.00
1776;BME280;885;42.626;23.200;2022-08-03T04:28:42;162081.50;;;16.20;100.00
1776;BME280;885;42.626;23.200;2022-08-03T04:31:11;162072.28;;;16.16;100.00
1776;BME280;885;42.626;23.200;2022-08-03T04:33:40;162466.16;;;16.24;100.00
1776;BME280;885;42.626;23.200;2022-08-03T04:36:14;162487.34;;;16.32;100.00
1776;BME280;885;42.626;23.200;2022-08-03T04:38:53;162497.94;;;16.36;100.00
1776;BME280;885;42.626;23.200;2022-08-03T04:41:23;162874.78;;;16.37;100.00
1776;BME280;885;42.626;23.200;2022-08-03T04:43:53;162877.47;;;16.38;100.00
1776;BME280;885;42.626;23.200;2022-08-03T04:46:22;162898.69;;;16.46;100.00
1776;BME280;885;42.626;23.200;2022-08-03T04:48:49;162894.69;;;16.44;100.00
1776;BME280;885;42.626;23.200;2022-08-03T04:51:16;163282.31;;;16.49;100.00
1776;BME280;885;42.626;23.200;2022-08-03T04:53:45;163663.31;;;16.52;100.00
1776;BME280;885;42.626;23.200;2022-08-03T04:56:12;163672.66;;;16.55;100.00
1776;BME280;885;42.626;23.200;2022-08-03T04:58:38;164073.78;;;16.65;100.00
1776;BME280;885;42.626;23.200;2022-08-03T05:01:05;164151.38;;;16.95;100.00
1776;BME280;885;42.626;23.200;2022-08-03T05:03:32;164128.63;;;16.86;100.00
1776;BME280;885;42.626;23.200;2022-08-03T05:05:59;164112.59;;;16.80;100.00
1776;BME280;885;42.626;23.200;2022-08-03T05:08:26;164096.53;;;16.74;100.00
1776;BME280;885;42.626;23.200;2022-08-03T05:10:54;164469.72;;;16.74;100.00
1776;BME280;885;42.626;23.200;2022-08-03T05:13:21;164469.72;;;16.74;100.00
1776;BME280;885;42.626;23.200;2022-08-03T05:15:48;164869.88;;;16.83;100.00
1776;BME280;885;42.626;23.200;2022-08-03T05:18:15;165266.09;;;16.91;100.00
1776;BME280;885;42.626;23.200;2022-08-03T05:20:42;165643.56;;;16.92;100.00
1776;BME280;885;42.626;23.200;2022-08-03T05:23:08;165654.38;;;16.96;100.00
1776;BME280;885;42.626;23.200;2022-08-03T05:25:35;166103.63;;;17.24;100.00
1776;BME280;885;42.626;23.200;2022-08-03T05:28:03;166132.06;;;17.34;100.00
1776;BME280;885;42.626;23.200;2022-08-03T05:30:30;166202.56;;;17.61;100.00
1776;BME280;885;42.626;23.200;2022-08-03T05:32:57;166645.72;;;17.86;100.00
1776;BME280;885;42.626;23.200;2022-08-03T05:35:24;166689.16;;;18.02;100.00
1776;BME280;885;42.626;23.200;2022-08-03T05:37:55;166724.47;;;18.15;100.00
1776;BME280;885;42.626;23.200;2022-08-03T05:40:25;166746.19;;;18.23;100.00
1776;BME280;885;42.626;23.200;2022-08-03T05:42:52;166772.03;;;18.33;100.00
1776;BME280;885;42.626;23.200;2022-08-03T05:45:20;166747.56;;;18.23;100.00
1776;BME280;885;42.626;23.200;2022-08-03T05:47:47;166724.47;;;18.15;100.00
1776;BME280;885;42.626;23.200;2022-08-03T05:50:16;166392.22;;;18.31;100.00
1776;BME280;885;42.626;23.200;2022-08-03T05:52:44;166806.03;;;18.45;100.00
1776;BME280;885;42.626;23.200;2022-08-03T05:55:11;167311.22;;;18.93;98.83
1776;BME280;885;42.626;23.200;2022-08-03T05:57:39;168262.09;;;19.66;96.39
1776;BME280;885;42.626;23.200;2022-08-03T06:00:09;168473.03;;;20.43;90.15
1776;BME280;885;42.626;23.200;2022-08-03T06:02:38;168954.59;;;20.82;88.25
1776;BME280;885;42.626;23.200;2022-08-03T06:05:05;168943.59;;;20.78;88.34
1776;BME280;885;42.626;23.200;2022-08-03T06:07:33;168503.19;;;20.54;90.15
1776;BME280;885;42.626;23.200;2022-08-03T06:09:59;168489.47;;;20.49;90.54
1776;BME280;885;42.626;23.200;2022-08-03T06:12:28;168086.34;;;20.40;85.66
1776;BME280;885;42.626;23.200;2022-08-03T06:14:55;168083.56;;;20.39;86.74
1776;BME280;885;42.626;23.200;2022-08-03T06:17:23;168072.66;;;20.35;87.13
1776;BME280;885;42.626;23.200;2022-08-03T06:19:52;168112.28;;;20.49;84.94
1776;BME280;885;42.626;23.200;2022-08-03T06:22:19;168132.75;;;20.57;84.71
1776;BME280;885;42.626;23.200;2022-08-03T06:24:46;168605.94;;;20.92;83.78
1776;BME280;885;42.626;23.200;2022-08-03T06:27:13;169108.47;;;21.38;81.09
1776;BME280;885;42.626;23.200;2022-08-03T06:29:39;169248.63;;;21.89;77.66
1776;BME280;885;42.626;23.200;2022-08-03T06:32:06;169303.63;;;22.09;76.64
1776;BME280;885;42.626;23.200;2022-08-03T06:34:33;169303.63;;;22.09;76.71
1776;BME280;885;42.626;23.200;2022-08-03T06:37:01;169309.13;;;22.11;76.44
1776;BME280;885;42.626;23.200;2022-08-03T06:39:28;169251.41;;;21.90;76.97
1776;BME280;885;42.626;23.200;2022-08-03T06:41:55;169787.97;;;22.48;75.74
1776;BME280;885;42.626;23.200;2022-08-03T06:44:22;169876.22;;;22.80;74.60
1776;BME280;885;42.626;23.200;2022-08-03T06:46:49;169899.66;;;22.89;73.40
1776;BME280;885;42.626;23.200;2022-08-03T06:49:16;169943.75;;;23.05;71.04
1776;BME280;885;42.626;23.200;2022-08-03T06:51:44;169854.19;;;22.72;73.24
1776;BME280;885;42.626;23.200;2022-08-03T06:54:12;169870.72;;;22.78;72.85
1776;BME280;885;42.626;23.200;2022-08-03T06:56:39;169885.88;;;22.84;72.69
1776;BME280;885;42.626;23.200;2022-08-03T06:59:05;169877.63;;;22.81;73.50
1776;BME280;885;42.626;23.200;2022-08-03T07:01:32;169498.91;;;22.81;72.85
1776;BME280;885;42.626;23.200;2022-08-03T07:03:59;169874.84;;;22.80;73.77
1776;BME280;885;42.626;23.200;2022-08-03T07:06:26;169533.28;;;22.94;71.82
1776;BME280;885;42.626;23.200;2022-08-03T07:08:53;169570.38;;;23.07;70.01
1776;BME280;885;42.626;23.200;2022-08-03T07:11:22;169525.00;;;22.90;69.64
1776;BME280;885;42.626;23.200;2022-08-03T07:13:49;169582.78;;;23.12;69.63
1776;BME280;885;42.626;23.200;2022-08-03T07:16:15;170009.91;;;23.29;69.18
1776;BME280;885;42.626;23.200;2022-08-03T07:18:42;169625.38;;;23.27;69.61
1776;BME280;885;42.626;23.200;2022-08-03T07:21:09;169630.88;;;23.29;68.43
1776;BME280;885;42.626;23.200;2022-08-03T07:23:37;170054.13;;;23.45;68.19
1776;BME280;885;42.626;23.200;2022-08-03T07:26:03;170076.16;;;23.53;68.34
1776;BME280;885;42.626;23.200;2022-08-03T07:28:32;170107.84;;;23.65;68.14
1776;BME280;885;42.626;23.200;2022-08-03T07:30:59;169703.88;;;23.56;65.81
1776;BME280;885;42.626;23.200;2022-08-03T07:33:25;169688.69;;;23.50;66.82
1776;BME280;885;42.626;23.200;2022-08-03T07:35:52;169639.19;;;23.32;69.32
1776;BME280;885;42.626;23.200;2022-08-03T07:38:19;169610.25;;;23.22;71.30
1776;BME280;885;42.626;23.200;2022-08-03T07:40:46;169176.47;;;23.02;69.88
1776;BME280;885;42.626;23.200;2022-08-03T07:43:13;169175.06;;;23.01;69.64
1776;BME280;885;42.626;23.200;2022-08-03T07:45:41;169202.50;;;23.11;69.51
1776;BME280;885;42.626;23.200;2022-08-03T07:48:08;169591.00;;;23.15;70.35
1776;BME280;885;42.626;23.200;2022-08-03T07:50:34;169188.81;;;23.06;70.46
1776;BME280;885;42.626;23.200;2022-08-03T07:53:01;169606.16;;;23.20;70.53
1776;BME280;885;42.626;23.200;2022-08-03T07:55:28;169624.03;;;23.27;72.52
1776;BME280;885;42.626;23.200;2022-08-03T07:58:19;169652.97;;;23.37;69.02
1776;BME280;885;42.626;23.200;2022-08-03T08:01:04;169679.09;;;23.47;68.21
1776;BME280;885;42.626;23.200;2022-08-03T08:03:34;169710.75;;;23.58;66.09
1776;BME280;885;42.626;23.200;2022-08-03T08:06:01;169289.00;;;23.43;64.70
1776;BME280;885;42.626;23.200;2022-08-03T08:08:28;169305.47;;;23.49;67.04
1776;BME280;885;42.626;23.200;2022-08-03T08:10:55;169302.75;;;23.48;67.45
1776;BME280;885;42.626;23.200;2022-08-03T08:13:23;169698.38;;;23.54;69.55
1776;BME280;885;42.626;23.200;2022-08-03T08:15:50;169811.16;;;23.95;65.62
1776;BME280;885;42.626;23.200;2022-08-03T08:18:18;169793.28;;;23.89;64.28
1776;BME280;885;42.626;23.200;2022-08-03T08:20:45;169804.28;;;23.93;64.24
1776;BME280;885;42.626;23.200;2022-08-03T08:23:12;169845.63;;;24.08;64.28
1776;BME280;885;42.626;23.200;2022-08-03T08:25:39;170274.78;;;24.26;64.65
1776;BME280;885;42.626;23.200;2022-08-03T08:28:06;170349.28;;;24.53;62.88
1776;BME280;885;42.626;23.200;2022-08-03T08:30:32;170374.13;;;24.62;62.92
1776;BME280;885;42.626;23.200;2022-08-03T08:32:59;170376.91;;;24.63;62.38
1776;BME280;885;42.626;23.200;2022-08-03T08:35:28;170415.59;;;24.77;61.56
1776;BME280;885;42.626;23.200;2022-08-03T08:37:55;170455.63;;;24.92;60.56
1776;BME280;885;42.626;23.200;2022-08-03T08:40:22;170508.06;;;25.11;59.25
1776;BME280;885;42.626;23.200;2022-08-03T08:42:49;170494.25;;;25.06;59.69
1776;BME280;885;42.626;23.200;2022-08-03T08:45:16;170523.22;;;25.16;59.07
1776;BME280;885;42.626;23.200;2022-08-03T08:47:45;170087.94;;;24.96;58.80
1776;BME280;885;42.626;23.200;2022-08-03T08:50:13;170074.16;;;24.91;59.89
1776;BME280;885;42.626;23.200;2022-08-03T08:52:46;170495.63;;;25.06;59.91
1776;BME280;885;42.626;23.200;2022-08-03T08:55:14;170517.72;;;25.14;59.73
1776;BME280;885;42.626;23.200;2022-08-03T08:57:47;170488.72;;;25.04;60.19
1776;BME280;885;42.626;23.200;2022-08-03T09:00:15;170158.13;;;25.22;58.47
1776;BME280;885;42.626;23.200;2022-08-03T09:02:43;170083.78;;;24.95;60.05
1776;BME280;885;42.626;23.200;2022-08-03T09:05:11;170531.53;;;25.19;59.99
1776;BME280;885;42.626;23.200;2022-08-03T09:07:38;170566.03;;;25.32;59.09
1776;BME280;885;42.626;23.200;2022-08-03T09:10:08;170595.06;;;25.43;57.71
1776;BME280;885;42.626;23.200;2022-08-03T09:12:44;170574.28;;;25.35;58.44
1776;BME280;885;42.626;23.200;2022-08-03T09:15:19;170222.94;;;25.46;55.50
1776;BME280;885;42.626;23.200;2022-08-03T09:17:48;170282.19;;;25.67;54.42
1776;BME280;885;42.626;23.200;2022-08-03T09:20:17;170744.19;;;25.97;55.81
1776;BME280;885;42.626;23.200;2022-08-03T09:22:56;170774.59;;;26.08;54.74
1776;BME280;885;42.626;23.200;2022-08-03T09:25:30;170771.78;;;26.07;54.73
1776;BME280;885;42.626;23.200;2022-08-03T09:28:05;170806.38;;;26.20;54.82
1776;BME280;885;42.626;23.200;2022-08-03T09:30:33;170757.97;;;26.02;55.59
1776;BME280;885;42.626;23.200;2022-08-03T09:33:00;170816.03;;;26.23;55.94
1776;BME280;885;42.626;23.200;2022-08-03T09:35:28;170865.78;;;26.41;54.39
1776;BME280;885;42.626;23.200;2022-08-03T09:38:08;171321.59;;;26.68;54.28
1776;BME280;885;42.626;23.200;2022-08-03T09:40:38;171338.25;;;26.74;53.96
1776;BME280;885;42.626;23.200;2022-08-03T09:43:06;171399.16;;;26.97;50.98
1776;BME280;885;42.626;23.200;2022-08-03T09:45:34;170959.72;;;26.75;51.43
1776;BME280;885;42.626;23.200;2022-08-03T09:48:20;171041.25;;;27.05;51.47
1776;BME280;885;42.626;23.200;2022-08-03T09:50:48;171469.81;;;27.22;51.53
1776;BME280;885;42.626;23.200;2022-08-03T09:53:16;171510.03;;;27.37;50.85
1776;BME280;885;42.626;23.200;2022-08-03T09:55:51;171479.50;;;27.26;51.34
1776;BME280;885;42.626;23.200;2022-08-03T09:58:20;171501.63;;;27.34;53.42
1776;BME280;885;42.626;23.200;2022-08-03T10:00:55;171147.75;;;27.44;50.13
1776;BME280;885;42.626;23.200;2022-08-03T10:03:23;171176.72;;;27.54;48.72
1776;BME280;885;42.626;23.200;2022-08-03T10:05:51;171136.63;;;27.40;49.60
1776;BME280;885;42.626;23.200;2022-08-03T10:08:18;171203.00;;;27.64;48.95
1776;BME280;885;42.626;23.200;2022-08-03T10:10:47;171208.53;;;27.66;47.07
1776;BME280;885;42.626;23.200;2022-08-03T10:13:17;170771.59;;;27.46;48.66
1776;BME280;885;42.626;23.200;2022-08-03T10:15:44;170755.00;;;27.40;49.87
1776;BME280;885;42.626;23.200;2022-08-03T10:18:11;171191.97;;;27.60;50.49
1776;BME280;885;42.626;23.200;2022-08-03T10:20:42;171158.78;;;27.48;50.68
1776;BME280;885;42.626;23.200;2022-08-03T10:23:11;170799.16;;;27.56;48.67
1776;BME280;885;42.626;23.200;2022-08-03T10:25:40;170766.09;;;27.44;49.70
1776;BME280;885;42.626;23.200;2022-08-03T10:28:11;170828.13;;;27.67;49.00
1776;BME280;885;42.626;23.200;2022-08-03T10:30:43;171256.94;;;27.84;49.35
1776;BME280;885;42.626;23.200;2022-08-03T10:33:17;171269.34;;;27.88;48.28
1776;BME280;885;42.626;23.200;2022-08-03T10:35:46;170891.56;;;27.90;47.28
1776;BME280;885;42.626;23.200;2022-08-03T10:38:18;170852.91;;;27.76;48.90
1776;BME280;885;42.626;23.200;2022-08-03T10:40:46;170405.06;;;27.51;48.33
1776;BME280;885;42.626;23.200;2022-08-03T10:43:19;170906.72;;;27.95;46.86
1776;BME280;885;42.626;23.200;2022-08-03T10:45:48;170981.25;;;28.22;46.47
1776;BME280;885;42.626;23.200;2022-08-03T10:48:16;171048.84;;;28.47;45.12
1776;BME280;885;42.626;23.200;2022-08-03T10:50:44;171508.69;;;28.75;45.62
1776;BME280;885;42.626;23.200;2022-08-03T10:53:11;171565.41;;;28.96;44.45
1776;BME280;885;42.626;23.200;2022-08-03T10:55:39;171584.78;;;29.03;43.96
1776;BME280;885;42.626;23.200;2022-08-03T10:58:46;171543.28;;;28.88;46.00
1776;BME280;885;42.626;23.200;2022-08-03T11:01:16;171554.34;;;28.92;45.05
1776;BME280;885;42.626;23.200;2022-08-03T11:04:14;172000.81;;;29.15;47.48
1776;BME280;885;42.626;23.200;2022-08-03T11:06:43;171208.97;;;29.05;43.68
1776;BME280;885;42.626;23.200;2022-08-03T11:09:15;171593.06;;;29.06;46.12
1776;BME280;885;42.626;23.200;2022-08-03T11:11:44;171580.59;;;29.01;46.58
1776;BME280;885;42.626;23.200;2022-08-03T11:14:13;171558.47;;;28.93;47.02
1776;BME280;885;42.626;23.200;2022-08-03T11:16:42;171061.28;;;28.52;46.79
1776;BME280;885;42.626;23.200;2022-08-03T11:19:12;170640.44;;;28.38;46.17
1776;BME280;885;42.626;23.200;2022-08-03T11:21:56;170184.09;;;28.10;46.04
1776;BME280;885;42.626;23.200;2022-08-03T11:25:00;170588.13;;;28.18;47.93
1776;BME280;885;42.626;23.200;2022-08-03T11:27:32;171091.69;;;28.63;46.25
1776;BME280;885;42.626;23.200;2022-08-03T11:30:03;171192.41;;;28.99;45.46
1776;BME280;885;42.626;23.200;2022-08-03T11:32:51;171218.66;;;29.09;43.85
1776;BME280;885;42.626;23.200;2022-08-03T11:35:19;170871.81;;;29.22;41.81
1776;BME280;885;42.626;23.200;2022-08-03T11:38:07;170848.41;;;29.14;42.34
1776;BME280;885;42.626;23.200;2022-08-03T11:40:39;171275.31;;;29.30;43.85
1776;BME280;885;42.626;23.200;2022-08-03T11:43:07;170936.53;;;29.46;42.60
1776;BME280;885;42.626;23.200;2022-08-03T11:46:02;171395.44;;;29.73;41.63
1776;BME280;885;42.626;23.200;2022-08-03T11:48:35;171360.88;;;29.61;43.08
1776;BME280;885;42.626;23.200;2022-08-03T11:51:04;171398.19;;;29.74;42.66
1776;BME280;885;42.626;23.200;2022-08-03T11:53:31;171384.34;;;29.69;42.25
1776;BME280;885;42.626;23.200;2022-08-03T11:56:00;171842.25;;;29.97;44.32
1776;BME280;885;42.626;23.200;2022-08-03T11:58:29;171017.88;;;29.75;42.19
1776;BME280;885;42.626;23.200;2022-08-03T12:01:03;170494.56;;;29.24;43.64
1776;BME280;885;42.626;23.200;2022-08-03T12:03:31;170015.88;;;28.89;43.91
1776;BME280;885;42.626;23.200;2022-08-03T12:06:01;169472.13;;;28.29;44.93
1776;BME280;885;42.626;23.200;2022-08-03T12:08:31;168994.56;;;27.94;46.07
1776;BME280;885;42.626;23.200;2022-08-03T12:11:00;169444.75;;;28.19;46.34
1776;BME280;885;42.626;23.200;2022-08-03T12:13:38;169513.09;;;28.45;45.17
1776;BME280;885;42.626;23.200;2022-08-03T12:16:06;169882.97;;;28.40;46.79
1776;BME280;885;42.626;23.200;2022-08-03T12:18:35;169918.53;;;28.53;46.70
1776;BME280;885;42.626;23.200;2022-08-03T12:21:06;169867.84;;;28.35;46.93
1776;BME280;885;42.626;23.200;2022-08-03T12:23:34;169862.38;;;28.33;47.16
1776;BME280;885;42.626;23.200;2022-08-03T12:26:03;169930.94;;;28.58;47.02
1776;BME280;885;42.626;23.200;2022-08-03T12:28:31;170428.59;;;29.00;45.15
1776;BME280;885;42.626;23.200;2022-08-03T12:31:01;170447.84;;;29.07;45.57
1776;BME280;885;42.626;23.200;2022-08-03T12:33:29;170018.66;;;28.90;45.32
1776;BME280;885;42.626;23.200;2022-08-03T12:36:06;169484.44;;;28.34;46.36
1776;BME280;885;42.626;23.200;2022-08-03T12:38:37;169858.28;;;28.31;48.41
1776;BME280;885;42.626;23.200;2022-08-03T12:41:06;169939.19;;;28.61;46.66
1776;BME280;885;42.626;23.200;2022-08-03T12:43:46;170014.56;;;28.88;45.50
1776;BME280;885;42.626;23.200;2022-08-03T12:46:15;170859.47;;;29.18;47.37
1776;BME280;885;42.626;23.200;2022-08-03T12:49:13;171371.94;;;29.65;46.40
1776;BME280;885;42.626;23.200;2022-08-03T12:51:57;171392.63;;;29.72;45.22
1776;BME280;885;42.626;23.200;2022-08-03T12:54:25;171392.63;;;29.72;46.08
1776;BME280;885;42.626;23.200;2022-08-03T12:56:57;171418.94;;;29.82;45.92
1776;BME280;885;42.626;23.200;2022-08-03T12:59:24;171432.69;;;29.87;46.37
1776;BME280;885;42.626;23.200;2022-08-03T13:01:51;171398.19;;;29.74;47.48
1776;BME280;885;42.626;23.200;2022-08-03T13:04:29;171355.38;;;29.59;46.90
1776;BME280;885;42.626;23.200;2022-08-03T13:07:03;170937.94;;;29.46;45.73
1776;BME280;885;42.626;23.200;2022-08-03T13:09:40;169996.75;;;28.82;46.75
1776;BME280;885;42.626;23.200;2022-08-03T13:12:10;170072.06;;;29.09;45.49
1776;BME280;885;42.626;23.200;2022-08-03T13:14:38;170436.88;;;29.03;47.04
1776;BME280;885;42.626;23.200;2022-08-03T13:17:06;170468.44;;;29.15;46.59
1776;BME280;885;42.626;23.200;2022-08-03T13:19:34;170073.44;;;29.10;45.23
1776;BME280;885;42.626;23.200;2022-08-03T13:22:11;170024.13;;;28.92;46.56
1776;BME280;885;42.626;23.200;2022-08-03T13:24:40;169573.31;;;28.67;46.63
1776;BME280;885;42.626;23.200;2022-08-03T13:27:08;169094.16;;;28.31;46.66
1776;BME280;885;42.626;23.200;2022-08-03T13:29:36;169032.81;;;28.08;48.42